createdAt,value
2023-03-08T00:00:33.993Z,7.32
2023-03-08T00:03:02.784Z,7.90
2023-03-08T00:05:29.805Z,7.40
2023-03-08T00:07:56.756Z,8.30
2023-03-08T00:10:24.321Z,8.07
2023-03-08T00:12:51.271Z,9.10
2023-03-08T00:15:19.137Z,7.78
2023-03-08T00:17:46.327Z,7.78
2023-03-08T00:20:14.060Z,6.60
2023-03-08T00:22:42.353Z,7.95
2023-03-08T00:25:11.215Z,7.53
2023-03-08T00:27:38.588Z,7.57
2023-03-08T00:30:06.422Z,7.47
2023-03-08T00:32:33.547Z,7.95
2023-03-08T00:35:00.534Z,8.60
2023-03-08T00:37:27.517Z,8.45
2023-03-08T00:39:54.969Z,7.53
2023-03-08T00:42:22.853Z,8.35
2023-03-08T00:44:50.221Z,7.57
2023-03-08T00:47:17.724Z,8.02
2023-03-08T00:49:44.931Z,7.25
2023-03-08T00:52:12.005Z,8.02
2023-03-08T00:54:39.034Z,7.78
2023-03-08T00:57:06.392Z,7.22
2023-03-08T00:59:33.413Z,8.48
2023-03-08T01:02:01.210Z,7.50
2023-03-08T01:04:28.268Z,7.63
2023-03-08T01:06:55.253Z,7.32
2023-03-08T01:09:24.369Z,7.95
2023-03-08T01:11:52.111Z,6.80
2023-03-08T01:14:19.084Z,7.15
2023-03-08T01:16:46.049Z,7.38
2023-03-08T01:19:13.177Z,6.43
2023-03-08T01:21:43.570Z,7.82
2023-03-08T01:24:11.877Z,7.65
2023-03-08T01:26:38.816Z,7.00
2023-03-08T01:29:06.995Z,7.53
2023-03-08T01:31:35.617Z,7.20
2023-03-08T01:34:02.726Z,8.10
2023-03-08T01:36:30.110Z,7.63
2023-03-08T01:38:59.660Z,6.97
2023-03-08T01:41:29.659Z,7.60
2023-03-08T01:43:57.651Z,7.95
2023-03-08T01:46:28.114Z,7.47
2023-03-08T01:49:29.236Z,8.05
2023-03-08T01:52:12.616Z,9.02
2023-03-08T01:54:53.843Z,8.73
2023-03-08T01:57:28.311Z,9.60
2023-03-08T01:59:58.657Z,9.30
2023-03-08T02:02:34.574Z,10.30
2023-03-08T02:05:01.684Z,10.00
2023-03-08T02:07:30.606Z,11.02
2023-03-08T02:09:58.146Z,11.07
2023-03-08T02:12:26.518Z,11.32
2023-03-08T02:14:53.459Z,11.65
2023-03-08T02:17:23.918Z,11.45
2023-03-08T02:20:16.074Z,11.48
2023-03-08T02:22:44.272Z,8.73
2023-03-08T02:25:20.159Z,13.23
2023-03-08T02:27:48.534Z,13.07
2023-03-08T02:30:22.778Z,13.60
2023-03-08T02:32:49.748Z,13.93
2023-03-08T02:35:16.759Z,14.82
2023-03-08T02:37:44.741Z,14.60
2023-03-08T02:40:12.381Z,14.90
2023-03-08T02:42:39.811Z,14.32
2023-03-08T02:45:08.958Z,13.32
2023-03-08T02:47:37.146Z,12.43
2023-03-08T02:50:06.834Z,12.57
2023-03-08T02:52:34.382Z,12.68
2023-03-08T02:55:01.650Z,11.38
2023-03-08T02:57:29.033Z,10.85
2023-03-08T02:59:56.538Z,10.35
2023-03-08T03:02:25.464Z,10.35
2023-03-08T03:04:52.557Z,9.95
2023-03-08T03:07:19.600Z,9.98
2023-03-08T03:09:48.269Z,9.30
2023-03-08T03:12:15.448Z,9.93
2023-03-08T03:14:43.752Z,10.73
2023-03-08T03:17:11.364Z,10.50
2023-03-08T03:19:39.086Z,12.52
2023-03-08T03:22:06.215Z,12.70
2023-03-08T03:24:34.919Z,11.90
2023-03-08T03:27:03.146Z,13.07
2023-03-08T03:29:34.316Z,12.67
2023-03-08T03:32:11.053Z,11.02
2023-03-08T03:34:38.230Z,9.25
2023-03-08T03:37:05.910Z,9.73
2023-03-08T03:39:37.325Z,9.05
2023-03-08T03:42:09.230Z,9.55
2023-03-08T03:44:39.360Z,10.38
2023-03-08T03:47:08.973Z,11.35
2023-03-08T03:49:36.786Z,11.40
2023-03-08T03:52:03.985Z,10.27
2023-03-08T03:54:38.344Z,9.43
2023-03-08T03:57:05.924Z,9.65
2023-03-08T03:59:37.056Z,9.27
2023-03-08T04:02:04.563Z,9.52
2023-03-08T04:04:37.305Z,7.57
2023-03-08T04:07:05.189Z,7.00
2023-03-08T04:09:37.878Z,7.07
2023-03-08T04:12:10.021Z,7.07
2023-03-08T04:14:40.372Z,7.35
2023-03-08T04:17:08.926Z,7.93
2023-03-08T04:19:41.716Z,8.15
2023-03-08T04:22:10.901Z,9.48
2023-03-08T04:24:44.981Z,8.75
2023-03-08T04:29:44.288Z,9.80
2023-03-08T04:32:11.508Z,10.45
2023-03-08T04:34:44.562Z,10.93
2023-03-08T04:37:14.543Z,12.25
2023-03-08T04:39:44.694Z,12.80
2023-03-08T04:42:11.629Z,13.40
2023-03-08T04:44:38.966Z,14.23
2023-03-08T04:47:07.263Z,14.00
2023-03-08T04:49:39.498Z,13.48
2023-03-08T04:52:06.690Z,12.23
2023-03-08T04:54:36.598Z,11.23
2023-03-08T04:57:09.105Z,12.23
2023-03-08T04:59:49.084Z,12.38
2023-03-08T05:02:16.777Z,12.27
2023-03-08T05:04:45.541Z,12.75
2023-03-08T05:07:12.612Z,10.88
2023-03-08T05:09:40.046Z,11.50
2023-03-08T05:12:09.187Z,12.13
2023-03-08T05:14:48.509Z,11.10
2023-03-08T05:17:15.447Z,10.85
2023-03-08T05:19:42.643Z,10.50
2023-03-08T05:22:15.167Z,10.63
2023-03-08T05:24:48.378Z,9.27
2023-03-08T05:27:16.874Z,9.80
2023-03-08T05:29:45.353Z,10.13
2023-03-08T05:32:14.031Z,9.93
2023-03-08T05:34:41.440Z,10.00
2023-03-08T05:37:12.741Z,9.70
2023-03-08T05:39:42.228Z,8.98
2023-03-08T05:42:15.199Z,8.65
2023-03-08T05:44:44.848Z,8.30
2023-03-08T05:47:14.000Z,7.70
2023-03-08T05:49:42.670Z,8.13
2023-03-08T05:52:11.259Z,8.52
2023-03-08T05:54:39.658Z,8.13
2023-03-08T05:57:10.897Z,7.75
2023-03-08T05:59:38.652Z,7.22
2023-03-08T06:02:09.116Z,7.55
2023-03-08T06:07:08.854Z,6.50
2023-03-08T06:09:43.690Z,6.90
2023-03-08T06:12:14.968Z,6.00
2023-03-08T06:14:44.822Z,7.30
2023-03-08T06:17:13.385Z,7.53
2023-03-08T06:19:46.464Z,7.32
2023-03-08T06:22:16.321Z,7.78
2023-03-08T06:24:44.311Z,8.18
2023-03-08T06:27:12.548Z,8.43
2023-03-08T06:29:42.538Z,8.65
2023-03-08T06:32:09.758Z,9.30
2023-03-08T06:34:39.229Z,9.32
2023-03-08T06:37:06.569Z,8.95
2023-03-08T06:39:34.722Z,9.10
2023-03-08T06:42:07.727Z,9.52
2023-03-08T06:44:39.105Z,10.82
2023-03-08T06:47:06.946Z,10.85
2023-03-08T06:49:34.741Z,11.07
2023-03-08T06:52:02.012Z,10.05
2023-03-08T06:54:29.593Z,11.73
2023-03-08T06:56:56.575Z,11.65
2023-03-08T06:59:23.868Z,10.43
2023-03-08T07:01:50.913Z,10.05
2023-03-08T07:04:20.214Z,10.23
2023-03-08T07:06:47.741Z,9.90
2023-03-08T07:09:14.707Z,10.45
2023-03-08T07:11:42.870Z,10.60
2023-03-08T07:14:12.401Z,11.45
2023-03-08T07:16:42.148Z,11.27
2023-03-08T07:19:09.256Z,11.07
2023-03-08T07:21:41.325Z,10.75
2023-03-08T07:24:11.805Z,10.88
2023-03-08T07:26:42.126Z,11.88
2023-03-08T07:29:09.246Z,11.38
2023-03-08T07:31:37.161Z,11.93
2023-03-08T07:34:05.090Z,11.13
2023-03-08T07:36:33.560Z,12.38
2023-03-08T07:39:01.342Z,11.52
2023-03-08T07:41:30.813Z,11.93
2023-03-08T07:43:57.789Z,11.32
2023-03-08T07:46:28.291Z,11.95
2023-03-08T07:48:55.778Z,11.43
2023-03-08T07:51:22.856Z,10.57
2023-03-08T07:53:52.310Z,11.27
2023-03-08T07:56:20.272Z,9.95
2023-03-08T07:58:47.293Z,11.23
2023-03-08T08:01:14.922Z,10.00
2023-03-08T08:03:43.686Z,10.57
2023-03-08T08:06:11.103Z,9.77
2023-03-08T08:08:38.290Z,10.52
2023-03-08T08:11:23.734Z,9.88
2023-03-08T08:13:51.606Z,9.75
2023-03-08T08:16:18.719Z,10.40
2023-03-08T08:18:45.941Z,11.02
2023-03-08T08:21:15.404Z,9.98
2023-03-08T08:23:43.536Z,12.50
2023-03-08T08:26:19.352Z,10.00
2023-03-08T08:28:48.564Z,10.65
2023-03-08T08:31:19.653Z,9.43
2023-03-08T08:33:46.834Z,10.77
2023-03-08T08:36:16.728Z,9.95
2023-03-08T08:38:43.938Z,9.88
2023-03-08T08:41:11.006Z,11.68
2023-03-08T08:43:38.084Z,10.40
2023-03-08T08:46:06.019Z,10.88
2023-03-08T08:48:33.547Z,11.27
2023-03-08T08:51:01.032Z,10.10
2023-03-08T08:53:28.470Z,10.43
2023-03-08T08:55:55.555Z,11.43
2023-03-08T08:58:22.740Z,10.43
2023-03-08T09:00:50.163Z,10.43
2023-03-08T09:03:17.295Z,9.52
2023-03-08T09:05:46.258Z,9.20
2023-03-08T09:08:16.576Z,10.10
2023-03-08T09:10:43.614Z,10.15
2023-03-08T09:13:12.690Z,9.35
2023-03-08T09:15:40.325Z,9.65
2023-03-08T09:18:07.286Z,10.73
2023-03-08T09:20:34.362Z,10.48
2023-03-08T09:23:01.606Z,10.88
2023-03-08T09:25:28.813Z,10.57
2023-03-08T09:27:55.786Z,10.75
2023-03-08T09:30:22.825Z,11.18
2023-03-08T09:32:51.294Z,10.95
2023-03-08T09:35:18.354Z,10.88
2023-03-08T09:37:46.564Z,10.40
2023-03-08T09:40:27.309Z,10.57
2023-03-08T09:42:59.874Z,11.00
2023-03-08T09:45:28.804Z,10.20
2023-03-08T09:48:15.932Z,10.02
2023-03-08T09:50:54.202Z,9.15
2023-03-08T09:53:50.645Z,9.05
2023-03-08T09:56:32.202Z,8.82
2023-03-08T09:59:12.629Z,9.43
2023-03-08T10:01:53.237Z,8.98
2023-03-08T10:04:44.321Z,9.45
2023-03-08T10:07:21.653Z,9.10
2023-03-08T10:10:12.039Z,8.82
2023-03-08T10:12:57.770Z,8.35
2023-03-08T10:15:26.872Z,8.38
2023-03-08T10:18:18.391Z,8.20
2023-03-08T10:20:46.849Z,7.83
2023-03-08T10:23:20.223Z,8.70
2023-03-08T10:25:49.581Z,7.50
2023-03-08T10:28:19.720Z,7.80
2023-03-08T10:30:53.640Z,7.43
2023-03-08T10:33:26.995Z,7.05
2023-03-08T10:35:56.958Z,7.68
2023-03-08T10:38:26.470Z,7.57
2023-03-08T10:41:05.213Z,7.80
2023-03-08T10:43:36.352Z,8.00
2023-03-08T10:46:12.816Z,7.80
2023-03-08T10:48:40.036Z,8.10
2023-03-08T10:51:23.699Z,7.18
2023-03-08T10:53:58.600Z,6.50
2023-03-08T10:56:39.228Z,7.18
2023-03-08T10:59:16.365Z,7.18
2023-03-08T11:01:51.680Z,7.00
2023-03-08T11:04:21.409Z,7.55
2023-03-08T11:06:48.650Z,7.60
2023-03-08T11:09:27.821Z,6.72
2023-03-08T11:11:59.818Z,6.75
2023-03-08T11:14:28.720Z,6.88
2023-03-08T11:17:03.152Z,7.15
2023-03-08T11:20:06.423Z,7.03
2023-03-08T11:23:15.007Z,7.05
2023-03-08T11:25:46.576Z,6.53
2023-03-08T11:28:34.165Z,7.28
2023-03-08T11:31:15.217Z,7.10
2023-03-08T11:34:07.114Z,7.85
2023-03-08T11:37:10.881Z,7.45
2023-03-08T11:39:52.609Z,8.18
2023-03-08T11:42:26.863Z,7.35
2023-03-08T11:45:16.884Z,8.02
2023-03-08T11:48:12.407Z,8.27
2023-03-08T11:50:59.623Z,8.25
2023-03-08T11:53:57.089Z,9.20
2023-03-08T11:56:51.075Z,8.90
2023-03-08T11:59:20.729Z,9.20
2023-03-08T12:02:08.020Z,9.27
2023-03-08T12:04:42.363Z,9.85
2023-03-08T12:07:39.356Z,9.27
2023-03-08T12:10:20.462Z,10.00
2023-03-08T12:12:55.700Z,9.90
2023-03-08T12:15:39.719Z,9.50
2023-03-08T12:18:23.210Z,10.30
2023-03-08T12:20:55.190Z,9.88
2023-03-08T12:23:43.481Z,9.70
2023-03-08T12:26:31.158Z,9.80
2023-03-08T12:29:08.073Z,9.55
2023-03-08T12:31:44.195Z,10.20
2023-03-08T12:34:28.345Z,9.45
2023-03-08T12:36:55.731Z,10.52
2023-03-08T12:39:26.795Z,10.82
2023-03-08T12:42:12.326Z,10.48
2023-03-08T12:44:39.806Z,11.13
2023-03-08T12:47:13.501Z,11.35
2023-03-08T12:49:43.010Z,11.82
2023-03-08T12:52:20.534Z,11.10
2023-03-08T12:55:00.571Z,11.93
2023-03-08T12:57:35.562Z,11.85
2023-03-08T13:00:10.982Z,12.30
2023-03-08T13:02:38.450Z,12.00
2023-03-08T13:05:31.104Z,12.52
2023-03-08T13:08:12.599Z,13.40
2023-03-08T13:11:12.472Z,12.43
2023-03-08T13:13:44.900Z,11.85
2023-03-08T13:16:15.101Z,11.95
2023-03-08T13:18:44.244Z,12.52
2023-03-08T13:21:28.076Z,12.75
2023-03-08T13:24:10.048Z,12.00
2023-03-08T13:27:13.716Z,11.90
2023-03-08T13:29:44.374Z,11.75
2023-03-08T13:32:18.300Z,12.52
2023-03-08T13:34:50.990Z,12.18
2023-03-08T13:37:36.333Z,12.80
2023-03-08T13:40:08.205Z,12.23
2023-03-08T13:42:35.249Z,12.48
2023-03-08T13:45:32.237Z,13.15
2023-03-08T13:48:02.891Z,12.18
2023-03-08T13:50:35.142Z,12.93
2023-03-08T13:53:07.832Z,12.82
2023-03-08T13:55:43.133Z,13.93
2023-03-08T13:58:27.249Z,12.50
2023-03-08T14:01:27.755Z,12.98
2023-03-08T14:03:56.142Z,12.57
2023-03-08T14:06:30.146Z,12.38
2023-03-08T14:09:00.576Z,12.18
2023-03-08T14:11:30.926Z,12.65
2023-03-08T14:14:00.220Z,13.40
2023-03-08T14:16:27.285Z,13.73
2023-03-08T14:18:54.925Z,13.90
2023-03-08T14:21:27.984Z,13.38
2023-03-08T14:23:58.465Z,12.85
2023-03-08T14:26:37.602Z,12.88
2023-03-08T14:29:13.744Z,14.75
2023-03-08T14:31:54.897Z,15.82
2023-03-08T14:34:43.776Z,15.32
2023-03-08T14:37:13.732Z,15.70
2023-03-08T14:39:48.504Z,14.57
2023-03-08T14:42:18.561Z,16.73
2023-03-08T14:44:58.447Z,16.13
2023-03-08T14:47:31.319Z,17.05
2023-03-08T14:50:28.477Z,17.90
2023-03-08T14:52:58.545Z,16.98
2023-03-08T14:55:27.343Z,17.45
2023-03-08T14:58:00.293Z,16.33
2023-03-08T15:00:29.001Z,18.13
2023-03-08T15:02:57.513Z,18.35
2023-03-08T15:05:29.427Z,17.10
2023-03-08T15:07:58.231Z,18.80
2023-03-08T15:10:28.038Z,18.75
2023-03-08T15:12:55.910Z,17.52
2023-03-08T15:15:23.240Z,17.55
2023-03-08T15:17:53.403Z,17.55
2023-03-08T15:20:21.857Z,19.10
2023-03-08T15:22:52.344Z,19.05
2023-03-08T15:25:27.649Z,19.30
2023-03-08T15:27:56.163Z,17.77
2023-03-08T15:30:25.898Z,18.63
2023-03-08T15:32:52.861Z,18.15
2023-03-08T15:35:19.921Z,17.98
2023-03-08T15:37:47.603Z,18.23
2023-03-08T15:40:21.294Z,18.30
2023-03-08T15:42:48.592Z,16.50
2023-03-08T15:45:15.809Z,17.83
2023-03-08T15:47:44.250Z,17.20
2023-03-08T15:50:18.200Z,18.65
2023-03-08T15:52:45.789Z,17.27
2023-03-08T15:55:15.542Z,18.25
2023-03-08T15:57:42.674Z,17.77
2023-03-08T16:00:12.676Z,17.80
2023-03-08T16:02:43.120Z,17.15
2023-03-08T16:05:13.747Z,18.33
2023-03-08T16:10:12.995Z,18.50
2023-03-08T16:12:40.918Z,18.38
2023-03-08T16:15:08.528Z,18.40
2023-03-08T16:17:35.980Z,17.85
2023-03-08T16:20:06.285Z,18.90
2023-03-08T16:22:35.249Z,17.75
2023-03-08T16:25:02.492Z,15.70
2023-03-08T16:27:31.382Z,16.70
2023-03-08T16:30:01.424Z,16.42
2023-03-08T16:32:35.465Z,16.63
2023-03-08T16:35:02.699Z,17.00
2023-03-08T16:37:30.097Z,16.17
2023-03-08T16:40:02.263Z,18.27
2023-03-08T16:44:57.217Z,14.48
2023-03-08T16:47:26.013Z,15.63
2023-03-08T16:49:53.526Z,14.38
2023-03-08T16:52:21.876Z,15.02
2023-03-08T16:54:49.008Z,15.23
2023-03-08T16:57:19.509Z,16.55
2023-03-08T16:59:48.725Z,15.43
2023-03-08T17:02:21.213Z,16.05
2023-03-08T17:04:49.542Z,16.27
2023-03-08T17:07:17.566Z,16.00
2023-03-08T17:09:46.532Z,16.67
2023-03-08T17:12:14.029Z,16.55
2023-03-08T17:14:41.315Z,16.88
2023-03-08T17:17:10.413Z,16.90
2023-03-08T17:19:40.497Z,17.55
2023-03-08T17:22:08.981Z,16.92
2023-03-08T17:24:36.143Z,17.63
2023-03-08T17:27:03.869Z,16.98
2023-03-08T17:29:31.302Z,16.73
2023-03-08T17:31:58.217Z,18.77
2023-03-08T17:34:25.250Z,17.65
2023-03-08T17:36:52.255Z,17.77
2023-03-08T17:39:19.970Z,18.42
2023-03-08T17:41:47.194Z,17.90
2023-03-08T17:44:14.814Z,19.55
2023-03-08T17:46:41.941Z,20.23
2023-03-08T17:49:09.088Z,20.98
2023-03-08T17:51:36.088Z,20.60
2023-03-08T17:54:03.458Z,20.63
2023-03-08T17:56:32.192Z,20.60
2023-03-08T17:59:01.249Z,21.63
2023-03-08T18:01:30.869Z,21.58
2023-03-08T18:03:58.625Z,22.08
2023-03-08T18:06:38.597Z,21.30
2023-03-08T18:09:15.957Z,20.15
2023-03-08T18:11:44.557Z,21.35
2023-03-08T18:14:14.187Z,20.33
2023-03-08T18:16:42.690Z,21.98
2023-03-08T18:19:10.875Z,21.65
2023-03-08T18:21:41.134Z,22.00
2023-03-08T18:24:13.870Z,22.63
2023-03-08T18:26:42.318Z,22.95
2023-03-08T18:29:09.358Z,22.77
2023-03-08T18:31:37.375Z,22.80
2023-03-08T18:34:06.444Z,23.38
2023-03-08T18:36:34.158Z,22.88
2023-03-08T18:39:04.762Z,24.40
2023-03-08T18:41:32.582Z,24.35
2023-03-08T18:44:00.426Z,24.60
2023-03-08T18:46:29.987Z,25.67
2023-03-08T18:49:01.102Z,26.45
2023-03-08T18:51:29.480Z,26.92
2023-03-08T18:53:58.004Z,25.88
2023-03-08T18:56:26.101Z,27.50
2023-03-08T18:58:54.382Z,25.95
2023-03-08T19:01:21.820Z,26.48
2023-03-08T19:03:49.292Z,25.15
2023-03-08T19:06:16.589Z,27.58
2023-03-08T19:08:43.809Z,26.05
2023-03-08T19:11:19.229Z,28.38
2023-03-08T19:13:47.264Z,26.67
2023-03-08T19:16:26.667Z,26.77
2023-03-08T19:18:57.123Z,28.50
2023-03-08T19:21:27.228Z,25.10
2023-03-08T19:23:54.668Z,27.55
2023-03-08T19:26:36.152Z,27.42
2023-03-08T19:29:28.258Z,26.25
2023-03-08T19:31:59.883Z,26.75
2023-03-08T19:34:48.449Z,26.63
2023-03-08T19:37:15.940Z,25.98
2023-03-08T19:39:44.125Z,27.45
2023-03-08T19:42:14.841Z,26.77
2023-03-08T19:44:42.255Z,29.02
2023-03-08T19:47:10.028Z,28.05
2023-03-08T19:49:41.239Z,28.48
2023-03-08T19:52:09.635Z,28.10
2023-03-08T19:54:37.402Z,27.90
2023-03-08T19:57:05.435Z,28.98
2023-03-08T19:59:32.565Z,29.05
2023-03-08T20:01:59.550Z,30.67
2023-03-08T20:04:26.645Z,28.83
2023-03-08T20:06:53.684Z,29.08
2023-03-08T20:09:21.843Z,28.88
2023-03-08T20:11:57.476Z,28.80
2023-03-08T20:14:27.609Z,29.45
2023-03-08T20:16:55.329Z,29.20
2023-03-08T20:19:22.601Z,29.23
2023-03-08T20:21:49.866Z,28.13
2023-03-08T20:24:19.038Z,27.42
2023-03-08T20:26:47.546Z,28.38
2023-03-08T20:29:15.544Z,29.70
2023-03-08T20:31:42.599Z,29.48
2023-03-08T20:34:10.192Z,28.73
2023-03-08T20:36:37.943Z,28.85
2023-03-08T20:39:05.365Z,29.83
2023-03-08T20:41:32.706Z,28.40
2023-03-08T20:43:59.900Z,27.77
2023-03-08T20:46:33.214Z,29.02
2023-03-08T20:49:00.872Z,29.45
2023-03-08T20:51:28.642Z,29.58
2023-03-08T20:53:57.097Z,27.55
2023-03-08T20:56:25.797Z,27.73
2023-03-08T20:58:54.905Z,29.17
2023-03-08T21:01:29.534Z,29.23
2023-03-08T21:04:00.927Z,28.35
2023-03-08T21:06:38.664Z,28.55
2023-03-08T21:09:05.628Z,29.17
2023-03-08T21:11:33.084Z,27.30
2023-03-08T21:14:00.601Z,28.73
2023-03-08T21:16:28.959Z,31.05
2023-03-08T21:18:59.611Z,29.65
2023-03-08T21:21:38.771Z,30.30
2023-03-08T21:24:10.408Z,29.30
2023-03-08T21:26:37.676Z,28.63
2023-03-08T21:29:07.421Z,26.85
2023-03-08T21:31:37.755Z,28.65
2023-03-08T21:34:06.386Z,29.42
2023-03-08T21:36:34.591Z,29.08
2023-03-08T21:39:01.702Z,28.00
2023-03-08T21:41:32.556Z,28.80
2023-03-08T21:44:01.795Z,28.85
2023-03-08T21:46:29.050Z,28.67
2023-03-08T21:48:57.170Z,27.63
2023-03-08T21:51:24.640Z,27.60
2023-03-08T21:53:51.927Z,30.65
2023-03-08T21:56:19.805Z,28.38
2023-03-08T21:58:47.820Z,27.50
2023-03-08T22:01:23.826Z,28.05
2023-03-08T22:03:52.462Z,28.75
2023-03-08T22:06:19.397Z,28.02
2023-03-08T22:08:47.954Z,26.98
2023-03-08T22:11:15.680Z,27.27
2023-03-08T22:13:43.224Z,29.00
2023-03-08T22:16:11.492Z,27.10
2023-03-08T22:18:38.552Z,26.95
2023-03-08T22:21:05.886Z,25.95
2023-03-08T22:23:33.082Z,28.17
2023-03-08T22:26:00.226Z,27.92
2023-03-08T22:28:27.233Z,28.15
2023-03-08T22:30:54.186Z,27.05
2023-03-08T22:33:21.146Z,26.55
2023-03-08T22:35:48.536Z,26.73
2023-03-08T22:38:18.286Z,25.83
2023-03-08T22:40:45.592Z,25.30
2023-03-08T22:43:12.725Z,26.45
2023-03-08T22:45:39.796Z,24.77
2023-03-08T22:48:06.936Z,25.92
2023-03-08T22:50:34.244Z,24.33
2023-03-08T22:53:02.736Z,23.50
2023-03-08T22:55:29.650Z,22.42
2023-03-08T22:57:56.541Z,22.50
2023-03-08T23:00:23.722Z,23.65
2023-03-08T23:02:50.705Z,22.98
2023-03-08T23:05:20.364Z,23.20
2023-03-08T23:07:47.741Z,19.85
2023-03-08T23:10:21.886Z,20.50
2023-03-08T23:12:48.928Z,19.23
2023-03-08T23:15:16.134Z,20.77
2023-03-08T23:17:43.442Z,21.70
2023-03-08T23:20:12.302Z,20.90
2023-03-08T23:22:39.335Z,22.65
2023-03-08T23:25:06.997Z,20.50
2023-03-08T23:27:34.229Z,18.98
2023-03-08T23:30:01.222Z,17.90
2023-03-08T23:32:28.209Z,19.13
2023-03-08T23:34:55.297Z,17.17
2023-03-08T23:37:22.250Z,18.75
2023-03-08T23:39:49.444Z,18.95
2023-03-08T23:42:16.581Z,19.95
2023-03-08T23:44:43.591Z,18.92
2023-03-08T23:47:13.325Z,18.92
2023-03-08T23:49:40.247Z,18.45
2023-03-08T23:52:07.180Z,18.15
2023-03-08T23:54:34.111Z,17.15
2023-03-08T23:57:01.011Z,16.17
2023-03-08T23:59:28.149Z,16.73
